Time;durP1;ratioP1;P1;durP2;ratioP2;P2;SDS_P1;SDS_P2;PMS_P1;PMS_P2;Temp;Humidity;BMP_temperature;BMP_pressure;BME280_temperature;BME280_humidity;BME280_pressure;Samples;Min_cycle;Max_cycle;Signal;HPM_P1;HPM_P2
2022/06/19 00:02:46;;;;;;;16.98;3.22;;;15.30;99.90;;;;;;5034953;28;20041;-83
2022/06/19 00:05:32;;;;;;;14.25;2.55;;;15.30;99.90;;;;;;5035552;28;20056;-83
2022/06/19 00:08:18;;;;;;;12.98;2.65;;;15.30;99.90;;;;;;5051984;28;20048;-82
2022/06/19 00:11:06;;;;;;;14.45;2.55;;;15.30;99.90;;;;;;5036311;28;20118;-83
2022/06/19 00:13:52;;;;;;;16.17;3.20;;;15.20;99.90;;;;;;5032359;28;20114;-84
2022/06/19 00:16:38;;;;;;;16.60;2.20;;;15.30;99.90;;;;;;5049857;28;20045;-81
2022/06/19 00:19:24;;;;;;;11.65;3.33;;;15.20;99.90;;;;;;5050736;28;20052;-84
2022/06/19 00:22:11;;;;;;;11.50;2.65;;;15.20;99.90;;;;;;5040285;28;20052;-83
2022/06/19 00:24:58;;;;;;;12.70;2.38;;;15.20;99.90;;;;;;5016696;28;20061;-82
2022/06/19 00:27:46;;;;;;;12.57;2.13;;;15.20;99.90;;;;;;5053239;28;20056;-83
2022/06/19 00:30:33;;;;;;;12.90;3.05;;;15.20;99.90;;;;;;5052301;28;20049;-83
2022/06/19 00:33:19;;;;;;;12.38;2.10;;;15.20;99.90;;;;;;5022276;28;20053;-82
2022/06/19 00:36:06;;;;;;;18.90;2.83;;;15.30;99.90;;;;;;5039699;28;20044;-83
2022/06/19 00:38:53;;;;;;;20.52;3.33;;;15.30;99.90;;;;;;5034682;28;20057;-82
2022/06/19 00:41:40;;;;;;;17.23;3.08;;;15.20;99.90;;;;;;5036604;28;20053;-84
2022/06/19 00:44:26;;;;;;;15.38;2.47;;;15.20;99.90;;;;;;5053135;28;20060;-83
2022/06/19 00:47:35;;;;;;;14.70;2.53;;;15.20;99.90;;;;;;5034859;28;20059;-83
2022/06/19 00:50:28;;;;;;;19.73;3.00;;;15.20;99.90;;;;;;5052253;28;20515;-86
2022/06/19 00:53:29;;;;;;;15.23;2.40;;;15.20;99.90;;;;;;5034743;28;20098;-82
2022/06/19 00:56:18;;;;;;;10.98;2.28;;;15.20;99.90;;;;;;5031765;28;20215;-83
2022/06/19 00:59:05;;;;;;;21.23;4.22;;;15.20;99.90;;;;;;5034031;28;20459;-84
2022/06/19 01:01:52;;;;;;;13.65;2.72;;;15.10;99.90;;;;;;5052977;28;20405;-82
2022/06/19 01:04:43;;;;;;;22.95;3.20;;;15.10;99.90;;;;;;5020837;28;20052;-83
2022/06/19 01:07:29;;;;;;;17.73;3.25;;;15.10;99.90;;;;;;5034418;28;20059;-84
2022/06/19 01:10:16;;;;;;;15.00;2.75;;;15.10;99.90;;;;;;5034093;28;20049;-85
2022/06/19 01:13:03;;;;;;;12.63;2.80;;;15.10;99.90;;;;;;5034824;28;20052;-81
2022/06/19 01:15:50;;;;;;;16.38;3.63;;;15.00;99.90;;;;;;5051550;28;20041;-84
2022/06/19 01:18:39;;;;;;;21.77;2.97;;;15.00;99.90;;;;;;5033829;28;20053;-82
2022/06/19 01:21:40;;;;;;;17.38;3.30;;;15.00;99.90;;;;;;5051572;28;20148;-83
2022/06/19 01:24:29;;;;;;;14.10;2.33;;;15.00;99.90;;;;;;5021857;28;20136;-86
2022/06/19 01:30:21;;;;;;;17.85;3.05;;;14.90;99.90;;;;;;5023160;28;20076;-83
2022/06/19 01:33:11;;;;;;;12.20;2.42;;;14.90;99.90;;;;;;5020680;28;20045;-82
2022/06/19 01:35:58;;;;;;;14.82;2.45;;;14.90;99.90;;;;;;5051650;28;20053;-83
2022/06/19 01:38:48;;;;;;;11.23;2.88;;;14.80;99.90;;;;;;5035700;28;20048;-86
2022/06/19 01:41:36;;;;;;;18.58;2.47;;;14.80;99.90;;;;;;5052419;28;20504;-82
2022/06/19 01:44:22;;;;;;;11.43;2.20;;;14.70;99.90;;;;;;5052285;28;20048;-82
2022/06/19 01:47:09;;;;;;;10.32;2.40;;;14.70;99.90;;;;;;5054721;28;20397;-84
2022/06/19 01:49:57;;;;;;;18.98;2.70;;;14.60;99.90;;;;;;5039378;28;20057;-84
2022/06/19 01:52:44;;;;;;;13.60;2.13;;;14.70;99.90;;;;;;5055447;28;20056;-83
2022/06/19 01:55:32;;;;;;;12.60;2.42;;;14.60;99.90;;;;;;5035894;28;20049;-82
2022/06/19 01:58:23;;;;;;;14.15;3.78;;;14.60;99.90;;;;;;5051627;28;20049;-83
2022/06/19 02:01:11;;;;;;;13.23;3.08;;;14.60;99.90;;;;;;5037986;28;20100;-82
2022/06/19 02:04:00;;;;;;;17.58;3.90;;;14.60;99.90;;;;;;5037468;28;20530;-82
2022/06/19 02:06:49;;;;;;;22.77;3.33;;;14.60;99.90;;;;;;5034029;28;20084;-83
2022/06/19 02:09:36;;;;;;;11.05;2.85;;;14.60;99.90;;;;;;5020562;28;20064;-83
2022/06/19 02:12:23;;;;;;;20.20;3.10;;;14.60;99.90;;;;;;5020428;28;20484;-83
2022/06/19 02:15:12;;;;;;;13.05;3.22;;;14.60;99.90;;;;;;5033237;28;20084;-83
2022/06/19 02:18:01;;;;;;;20.70;2.80;;;14.60;99.90;;;;;;5045084;28;20511;-83
2022/06/19 02:20:50;;;;;;;26.17;5.90;;;14.60;99.90;;;;;;5033638;28;20497;-83
2022/06/19 02:23:38;;;;;;;12.48;2.20;;;14.70;99.90;;;;;;5020446;28;20124;-85
2022/06/19 02:26:24;;;;;;;13.30;2.83;;;14.60;99.90;;;;;;5052320;28;20123;-84
2022/06/19 02:29:13;;;;;;;13.20;2.88;;;14.70;99.90;;;;;;5033395;28;20543;-85
2022/06/19 02:31:59;;;;;;;13.93;2.28;;;14.60;99.90;;;;;;5019975;28;20188;-85
2022/06/19 02:34:46;;;;;;;14.25;2.13;;;14.60;99.90;;;;;;5051512;28;20048;-83
2022/06/19 02:37:40;;;;;;;16.42;2.97;;;14.60;99.90;;;;;;5036721;28;20508;-83
2022/06/19 02:40:50;;;;;;;12.45;2.03;;;14.60;99.90;;;;;;5033281;28;20481;-83
2022/06/19 02:43:36;;;;;;;15.88;3.53;;;14.70;99.90;;;;;;5033429;28;20052;-82
2022/06/19 02:46:22;;;;;;;11.35;2.47;;;14.60;99.90;;;;;;5035116;28;20056;-87
2022/06/19 02:49:08;;;;;;;13.20;2.50;;;14.60;99.90;;;;;;5053756;28;20056;-84
2022/06/19 02:51:55;;;;;;;13.13;2.72;;;14.60;99.90;;;;;;5051083;28;20044;-84
2022/06/19 02:54:41;;;;;;;16.35;2.63;;;14.60;99.90;;;;;;5032626;28;20069;-82
2022/06/19 02:57:28;;;;;;;19.60;3.50;;;14.60;99.90;;;;;;5039932;28;20436;-84
2022/06/19 03:00:18;;;;;;;14.25;2.33;;;14.60;99.90;;;;;;5056760;28;20041;-85
2022/06/19 03:03:16;;;;;;;15.63;2.50;;;14.60;99.90;;;;;;5035952;28;20056;-84
2022/06/19 03:06:05;;;;;;;15.73;3.28;;;14.60;99.90;;;;;;5052362;28;20080;-81
2022/06/19 03:08:51;;;;;;;17.50;3.67;;;14.60;99.90;;;;;;5019484;28;20408;-82
2022/06/19 03:11:37;;;;;;;19.13;4.05;;;14.40;99.90;;;;;;5050816;28;20055;-82
2022/06/19 03:14:24;;;;;;;13.48;2.30;;;14.30;99.90;;;;;;5032568;28;20064;-80
2022/06/19 03:17:18;;;;;;;11.38;1.85;;;14.20;99.90;;;;;;5049531;28;20496;-81
2022/06/19 03:20:05;;;;;;;16.35;2.25;;;14.20;99.90;;;;;;5045134;28;20048;-80
2022/06/19 03:22:52;;;;;;;16.23;3.00;;;14.10;99.90;;;;;;5050555;28;20079;-82
2022/06/19 03:25:38;;;;;;;19.35;3.67;;;14.10;99.90;;;;;;5033048;28;20500;-80
2022/06/19 03:28:24;;;;;;;11.50;2.03;;;14.00;99.90;;;;;;5050343;28;20400;-79
2022/06/19 03:31:20;;;;;;;16.63;2.88;;;13.90;99.90;;;;;;5036388;28;20480;-80
2022/06/19 03:34:06;;;;;;;20.75;2.97;;;13.80;99.90;;;;;;5033054;28;20378;-80
2022/06/19 03:36:52;;;;;;;16.35;2.40;;;13.80;99.90;;;;;;5049805;28;20060;-81
2022/06/19 03:39:39;;;;;;;17.60;2.97;;;13.80;99.90;;;;;;5033963;28;20099;-80
2022/06/19 03:42:25;;;;;;;21.13;3.20;;;13.70;99.90;;;;;;5017992;28;20041;-80
2022/06/19 03:45:11;;;;;;;18.88;3.13;;;13.80;99.90;;;;;;5033293;28;20136;-79
2022/06/19 03:47:57;;;;;;;16.95;3.00;;;13.70;99.90;;;;;;5049962;28;20153;-79
2022/06/19 03:50:43;;;;;;;24.02;3.17;;;13.80;99.90;;;;;;5027333;28;20063;-80
2022/06/19 03:53:30;;;;;;;20.10;3.95;;;13.70;99.90;;;;;;5032076;28;20113;-78
2022/06/19 03:56:20;;;;;;;18.20;2.95;;;13.70;99.90;;;;;;5053376;28;20497;-79
2022/06/19 03:59:09;;;;;;;18.98;2.83;;;13.60;99.90;;;;;;5054242;28;20135;-79
2022/06/19 04:01:55;;;;;;;18.58;2.85;;;13.50;99.90;;;;;;5034371;28;20051;-78
2022/06/19 04:04:42;;;;;;;16.02;3.10;;;13.50;99.90;;;;;;5035729;28;20048;-79
2022/06/19 04:07:28;;;;;;;16.45;2.88;;;13.50;99.90;;;;;;5035759;28;20447;-78
2022/06/19 04:10:16;;;;;;;25.27;5.57;;;13.50;99.90;;;;;;5023755;28;20068;-78
2022/06/19 04:13:03;;;;;;;18.88;3.92;;;13.50;99.90;;;;;;5034309;28;20142;-79
2022/06/19 04:15:49;;;;;;;17.98;3.83;;;13.50;99.90;;;;;;5053694;28;20110;-79
2022/06/19 04:18:35;;;;;;;22.63;3.85;;;13.50;99.90;;;;;;5035712;28;20140;-79
2022/06/19 04:21:27;;;;;;;15.63;2.97;;;13.50;99.90;;;;;;5036727;28;20045;-79
2022/06/19 04:24:16;;;;;;;18.13;3.28;;;13.50;99.90;;;;;;5052928;28;20584;-80
2022/06/19 04:27:06;;;;;;;22.13;2.83;;;13.40;99.90;;;;;;5030422;28;20088;-79
2022/06/19 04:29:52;;;;;;;17.13;3.30;;;13.20;99.90;;;;;;5052828;28;20076;-79
2022/06/19 04:32:39;;;;;;;16.15;2.75;;;13.10;99.90;;;;;;5053108;28;20049;-79
2022/06/19 04:35:25;;;;;;;15.95;2.50;;;13.00;99.90;;;;;;5053108;28;20044;-81
2022/06/19 04:38:11;;;;;;;16.63;2.40;;;12.80;99.90;;;;;;5037010;28;20049;-80
2022/06/19 04:40:58;;;;;;;11.20;1.92;;;12.80;99.90;;;;;;5052976;28;20053;-79
2022/06/19 04:52:20;;;;;;;17.48;2.55;;;12.60;99.90;;;;;;5053482;28;20048;-82
2022/06/19 04:55:06;;;;;;;11.48;1.80;;;12.50;99.90;;;;;;5038520;28;20566;-80
2022/06/19 04:57:52;;;;;;;6.88;2.58;;;12.50;99.90;;;;;;5050887;28;20097;-80
2022/06/19 05:00:40;;;;;;;13.10;2.03;;;12.40;99.90;;;;;;5033965;28;20139;-81
2022/06/19 05:03:26;;;;;;;14.95;2.20;;;12.50;99.90;;;;;;5052505;28;20135;-81
2022/06/19 05:06:13;;;;;;;9.48;2.15;;;12.50;99.90;;;;;;5052346;28;20053;-80
2022/06/19 05:08:59;;;;;;;10.05;2.13;;;12.60;99.90;;;;;;5034998;28;20056;-82
2022/06/19 05:11:45;;;;;;;9.88;1.85;;;12.60;99.90;;;;;;5053008;28;20416;-81
2022/06/19 05:14:32;;;;;;;21.83;2.00;;;12.60;99.90;;;;;;5034204;28;20481;-81
2022/06/19 05:17:18;;;;;;;8.90;1.90;;;12.60;99.90;;;;;;5020038;28;20053;-82
2022/06/19 05:20:05;;;;;;;9.88;1.98;;;12.60;99.90;;;;;;5053195;28;20048;-80
2022/06/19 05:22:51;;;;;;;13.25;2.30;;;12.70;99.90;;;;;;5052992;28;20052;-82
2022/06/19 05:25:37;;;;;;;9.30;1.73;;;12.70;99.90;;;;;;5044793;28;20049;-82
2022/06/19 05:28:23;;;;;;;14.35;2.13;;;12.70;99.90;;;;;;5022525;28;20045;-81
2022/06/19 05:31:10;;;;;;;15.80;1.77;;;12.70;99.90;;;;;;5051886;28;20144;-82
2022/06/19 05:33:56;;;;;;;12.93;1.70;;;12.80;99.90;;;;;;5038650;28;20049;-83
2022/06/19 05:36:42;;;;;;;12.10;1.98;;;12.80;99.90;;;;;;5052119;28;20057;-81
2022/06/19 05:39:29;;;;;;;13.80;2.50;;;12.80;99.90;;;;;;5034624;28;20045;-81
2022/06/19 05:42:16;;;;;;;9.77;2.22;;;12.90;99.90;;;;;;5052136;28;20045;-84
2022/06/19 05:45:02;;;;;;;13.77;3.00;;;12.80;99.90;;;;;;5054153;28;20136;-81
2022/06/19 05:47:48;;;;;;;14.90;3.28;;;12.90;99.90;;;;;;5052363;28;20049;-82
2022/06/19 05:50:35;;;;;;;8.73;2.15;;;13.00;99.90;;;;;;5052598;28;20102;-86
2022/06/19 05:53:21;;;;;;;6.45;1.50;;;13.00;99.90;;;;;;5033992;28;20049;-83
2022/06/19 05:56:08;;;;;;;13.07;2.72;;;13.00;99.90;;;;;;5053390;28;20052;-82
2022/06/19 05:58:55;;;;;;;14.98;2.72;;;13.10;99.90;;;;;;5051950;28;20489;-83
2022/06/19 06:01:41;;;;;;;16.80;2.53;;;13.10;99.90;;;;;;5034515;28;20053;-85
2022/06/19 06:04:28;;;;;;;8.88;1.70;;;13.20;99.90;;;;;;5036251;28;20166;-87
2022/06/19 06:07:14;;;;;;;9.30;1.75;;;13.20;99.90;;;;;;5051598;28;20051;-85
2022/06/19 06:10:00;;;;;;;6.88;2.00;;;13.20;99.90;;;;;;5054271;28;20139;-87
2022/06/19 06:12:46;;;;;;;10.63;1.85;;;13.30;99.90;;;;;;5052193;28;20060;-83
2022/06/19 06:15:33;;;;;;;9.98;1.40;;;13.30;99.90;;;;;;5051542;28;20048;-86
2022/06/19 06:18:19;;;;;;;8.07;1.58;;;13.60;99.90;;;;;;5051949;28;20088;-84
2022/06/19 06:21:10;;;;;;;6.68;1.20;;;13.70;99.90;;;;;;5052921;28;20051;-85
2022/06/19 06:23:57;;;;;;;14.18;2.05;;;13.70;99.90;;;;;;5037615;28;20111;-83
2022/06/19 06:26:43;;;;;;;11.90;3.00;;;13.80;99.90;;;;;;5025845;28;20378;-81
2022/06/19 06:29:29;;;;;;;11.20;1.85;;;13.70;99.90;;;;;;5051837;28;20122;-83
2022/06/19 06:32:15;;;;;;;10.55;2.20;;;13.80;99.90;;;;;;5052087;28;20056;-85
2022/06/19 06:35:02;;;;;;;10.95;2.72;;;13.70;99.90;;;;;;5035095;28;20187;-85
2022/06/19 06:37:48;;;;;;;11.23;2.42;;;13.70;99.90;;;;;;5033616;28;20053;-86
2022/06/19 06:40:35;;;;;;;11.00;1.75;;;13.80;99.90;;;;;;5051640;28;20169;-85
2022/06/19 06:43:22;;;;;;;13.00;2.15;;;13.80;99.90;;;;;;5052231;28;20045;-87
2022/06/19 06:46:12;;;;;;;9.70;2.08;;;14.00;99.90;;;;;;5051302;28;20049;-87
2022/06/19 06:48:59;;;;;;;8.80;2.00;;;14.10;99.90;;;;;;5052223;28;20052;-87
2022/06/19 06:51:46;;;;;;;14.50;2.33;;;14.30;99.90;;;;;;5053426;28;20045;-87
2022/06/19 06:54:34;;;;;;;6.75;1.45;;;14.40;99.90;;;;;;5051880;28;20393;-84
2022/06/19 06:57:20;;;;;;;9.85;2.55;;;14.40;99.90;;;;;;5040495;28;20527;-83
2022/06/19 07:00:09;;;;;;;9.25;1.90;;;14.40;99.90;;;;;;5032507;28;20485;-85
2022/06/19 07:02:55;;;;;;;7.90;1.50;;;14.40;99.90;;;;;;5031251;28;20091;-85
2022/06/19 07:05:41;;;;;;;7.53;1.48;;;14.50;99.90;;;;;;5031761;28;20464;-82
2022/06/19 07:08:27;;;;;;;6.70;1.50;;;14.50;99.90;;;;;;5013532;28;20053;-85
2022/06/19 07:11:19;;;;;;;7.63;1.73;;;14.60;99.90;;;;;;5031562;28;20065;-84
2022/06/19 07:14:07;;;;;;;9.30;1.63;;;14.60;99.90;;;;;;5013975;28;20061;-86
2022/06/19 07:16:53;;;;;;;5.20;1.80;;;14.60;99.90;;;;;;5012963;28;20539;-87
2022/06/19 07:19:39;;;;;;;9.52;1.80;;;14.70;99.90;;;;;;5013401;28;20485;-84
2022/06/19 07:22:25;;;;;;;8.85;1.67;;;14.80;99.90;;;;;;5032452;28;20037;-86
2022/06/19 07:25:17;;;;;;;7.72;1.63;;;14.80;99.90;;;;;;5017388;28;20041;-86
2022/06/19 07:28:04;;;;;;;7.10;1.42;;;14.80;99.90;;;;;;5017202;28;20730;-88
2022/06/19 07:30:52;;;;;;;18.13;2.35;;;14.90;99.90;;;;;;5035323;28;20152;-86
2022/06/19 07:33:39;;;;;;;7.32;1.65;;;14.80;99.90;;;;;;5034231;28;20425;-86
2022/06/19 07:36:25;;;;;;;7.00;1.80;;;14.70;99.90;;;;;;5035038;28;20052;-86
2022/06/19 07:39:12;;;;;;;8.57;1.38;;;14.70;99.90;;;;;;5035925;28;20380;-84
2022/06/19 07:41:59;;;;;;;7.28;1.38;;;14.60;99.90;;;;;;5034428;28;20042;-85
2022/06/19 07:44:46;;;;;;;6.25;0.93;;;14.50;99.90;;;;;;5016531;28;20667;-85
2022/06/19 07:50:36;;;;;;;7.80;1.35;;;14.50;99.90;;;;;;5022825;28;20052;-83
2022/06/19 07:53:22;;;;;;;10.35;1.20;;;14.50;99.90;;;;;;5017958;28;20132;-82
2022/06/19 07:56:09;;;;;;;7.95;0.90;;;14.50;99.90;;;;;;5019488;28;20139;-82
2022/06/19 07:58:55;;;;;;;6.05;1.23;;;14.50;99.90;;;;;;5052960;28;20053;-83
2022/06/19 08:01:41;;;;;;;5.90;1.58;;;14.50;99.90;;;;;;5053976;28;20088;-83
2022/06/19 08:04:27;;;;;;;5.68;1.20;;;14.50;99.90;;;;;;5053287;28;20103;-83
2022/06/19 08:07:15;;;;;;;10.27;1.50;;;14.60;99.90;;;;;;5035876;28;20127;-82
2022/06/19 08:10:01;;;;;;;12.07;2.47;;;14.70;99.90;;;;;;5054626;28;20045;-82
2022/06/19 08:12:48;;;;;;;5.82;1.13;;;14.70;99.90;;;;;;5036040;28;20203;-83
2022/06/19 08:15:34;;;;;;;7.55;1.50;;;14.80;99.90;;;;;;5039091;28;20045;-83
2022/06/19 08:18:21;;;;;;;7.32;1.10;;;14.90;99.90;;;;;;5021207;28;20057;-87
2022/06/19 08:21:07;;;;;;;10.93;1.25;;;14.90;99.90;;;;;;5013457;28;20045;-83
2022/06/19 08:23:53;;;;;;;7.82;1.15;;;15.00;99.90;;;;;;5054358;28;20040;-82
2022/06/19 08:26:39;;;;;;;5.97;1.00;;;14.90;99.90;;;;;;5041483;28;20041;-85
2022/06/19 08:29:26;;;;;;;7.47;1.10;;;15.00;99.90;;;;;;5053431;28;20420;-82
2022/06/19 08:32:12;;;;;;;9.55;1.20;;;15.00;99.90;;;;;;5055062;28;20442;-85
2022/06/19 08:34:58;;;;;;;10.30;1.42;;;15.00;99.90;;;;;;5053582;28;20441;-84
2022/06/19 08:37:48;;;;;;;7.40;1.63;;;15.10;99.90;;;;;;5008505;28;20089;-85
2022/06/19 08:40:34;;;;;;;7.15;1.02;;;15.10;99.90;;;;;;5052769;28;20053;-84
2022/06/19 08:43:20;;;;;;;7.55;1.20;;;15.10;99.90;;;;;;5054140;28;20049;-82
2022/06/19 08:46:12;;;;;;;8.32;1.27;;;15.30;99.90;;;;;;5039215;28;20053;-83
2022/06/19 08:49:38;;;;;;;4.35;0.95;;;15.30;99.90;;;;;;5053192;28;20045;-83
2022/06/19 08:52:33;;;;;;;6.60;0.82;;;15.30;99.90;;;;;;5037995;28;20493;-83
2022/06/19 08:55:22;;;;;;;6.35;0.80;;;15.40;99.90;;;;;;5052647;28;20044;-82
2022/06/19 08:58:11;;;;;;;6.78;1.02;;;15.60;99.90;;;;;;5052332;28;20048;-84
2022/06/19 09:01:23;;;;;;;6.75;1.40;;;15.70;99.90;;;;;;5052450;28;20053;-83
2022/06/19 09:07:29;;;;;;;5.05;1.27;;;16.00;99.90;;;;;;5052885;28;20128;-84
2022/06/19 09:10:38;;;;;;;5.55;0.90;;;16.20;99.90;;;;;;5053091;28;20045;-84
2022/06/19 09:13:28;;;;;;;4.63;0.98;;;16.40;99.90;;;;;;5052807;28;20049;-84
2022/06/19 09:16:38;;;;;;;7.20;1.02;;;16.70;99.90;;;;;;5052858;28;20127;-84
2022/06/19 09:19:55;;;;;;;3.90;0.70;;;16.70;99.90;;;;;;5052677;28;20049;-84
2022/06/19 09:23:08;;;;;;;4.53;0.70;;;16.70;99.90;;;;;;5052146;28;20044;-84
2022/06/19 09:26:00;;;;;;;6.50;0.98;;;16.80;99.90;;;;;;5052749;28;20131;-82
2022/06/19 09:29:00;;;;;;;3.22;0.82;;;16.80;99.90;;;;;;5052283;28;20164;-82
2022/06/19 09:31:55;;;;;;;4.22;1.02;;;16.90;99.90;;;;;;5034954;28;20403;-83
2022/06/19 09:34:56;;;;;;;5.65;0.68;;;16.90;99.90;;;;;;5052036;28;20041;-81
2022/06/19 09:37:59;;;;;;;3.80;0.75;;;16.80;99.90;;;;;;5033989;28;20057;-82
2022/06/19 09:40:51;;;;;;;5.75;0.93;;;17.00;99.90;;;;;;5052483;28;20045;-86
2022/06/19 09:43:46;;;;;;;5.25;0.95;;;17.00;99.90;;;;;;5034307;28;20094;-83
2022/06/19 09:47:08;;;;;;;5.75;1.30;;;16.90;99.90;;;;;;5051581;28;20164;-83
2022/06/19 09:50:03;;;;;;;6.07;1.08;;;16.70;99.90;;;;;;4957151;28;20058;-87
2022/06/19 09:52:57;;;;;;;5.28;1.30;;;16.60;99.90;;;;;;5042133;28;20048;-86
2022/06/19 09:55:46;;;;;;;8.07;1.30;;;16.70;99.90;;;;;;5055453;28;20048;-83
2022/06/19 09:58:42;;;;;;;6.82;1.00;;;16.90;99.90;;;;;;5053377;28;20059;-85
2022/06/19 10:01:30;;;;;;;5.78;1.08;;;16.90;99.90;;;;;;5051463;28;20048;-83
2022/06/19 10:04:27;;;;;;;3.65;0.82;;;17.00;99.90;;;;;;5033728;28;20060;-83
2022/06/19 10:07:37;;;;;;;7.97;1.20;;;17.20;99.90;;;;;;5052084;28;20063;-82
2022/06/19 10:10:34;;;;;;;5.28;1.20;;;17.40;99.90;;;;;;5052029;28;20055;-82
2022/06/19 10:13:49;;;;;;;5.28;1.60;;;17.70;99.90;;;;;;5050987;28;20049;-83
2022/06/19 10:16:44;;;;;;;7.65;1.90;;;17.60;99.90;;;;;;4991177;28;20484;-83
2022/06/19 10:20:09;;;;;;;4.60;1.27;;;17.50;99.90;;;;;;5036825;28;20055;-84
2022/06/19 10:23:05;;;;;;;7.50;1.55;;;17.60;99.90;;;;;;5050959;28;20049;-82
2022/06/19 10:26:00;;;;;;;7.68;1.40;;;17.70;99.90;;;;;;5032653;28;20468;-84
2022/06/19 10:29:17;;;;;;;6.57;1.77;;;17.60;99.90;;;;;;5036433;28;20511;-84
2022/06/19 10:32:17;;;;;;;7.15;1.30;;;17.50;99.90;;;;;;5051779;28;20126;-84
2022/06/19 10:35:10;;;;;;;5.95;1.40;;;17.70;99.90;;;;;;5050631;28;20523;-83
2022/06/19 10:38:24;;;;;;;7.65;2.05;;;17.80;99.90;;;;;;5051286;28;20063;-85
2022/06/19 10:44:52;;;;;;;4.93;1.25;;;18.10;99.90;;;;;;5032843;28;20585;-85
2022/06/19 10:47:55;;;;;;;7.10;1.20;;;18.10;99.90;;;;;;5052152;28;20053;-83
2022/06/19 10:50:51;;;;;;;9.68;1.58;;;18.00;99.90;;;;;;5021345;28;20488;-83
2022/06/19 10:53:46;;;;;;;6.22;1.40;;;18.00;99.90;;;;;;5051700;28;20052;-83
2022/06/19 10:56:55;;;;;;;5.95;1.75;;;17.90;99.90;;;;;;5050160;28;20506;-82
2022/06/19 10:59:41;;;;;;;4.15;1.15;;;17.90;99.90;;;;;;5018820;28;20606;-81
2022/06/19 11:05:52;;;;;;;6.15;1.42;;;18.30;99.90;;;;;;5050082;28;20048;-81
2022/06/19 11:08:42;;;;;;;;;;;18.30;99.90;;;;;;5051351;28;20048;-83
2022/06/19 11:11:29;;;;;;;5.93;1.55;;;18.10;99.90;;;;;;5050745;28;19932;-82
2022/06/19 11:14:43;;;;;;;3.75;0.75;;;18.10;99.90;;;;;;5050885;28;20128;-84
2022/06/19 11:17:34;;;;;;;5.80;1.20;;;18.00;99.90;;;;;;5032100;28;20523;-81
2022/06/19 11:20:30;;;;;;;5.80;1.13;;;18.10;99.90;;;;;;5049554;28;20127;-82
2022/06/19 11:23:37;;;;;;;4.18;1.10;;;18.10;99.90;;;;;;5050942;28;20052;-82
2022/06/19 11:26:26;;;;;;;6.88;1.85;;;18.10;99.90;;;;;;5049248;28;20139;-81
2022/06/19 11:29:20;;;;;;;5.50;1.67;;;18.10;99.90;;;;;;5032359;28;20489;-85
2022/06/19 11:32:11;;;;;;;6.30;1.45;;;18.20;99.90;;;;;;5049733;28;20511;-83
2022/06/19 11:35:05;;;;;;;7.45;1.45;;;18.30;99.90;;;;;;5050707;28;20128;-82
2022/06/19 11:37:54;;;;;;;5.55;1.30;;;18.30;99.90;;;;;;5018646;28;20068;-82
2022/06/19 11:40:45;;;;;;;7.75;1.13;;;18.40;99.90;;;;;;5031734;28;20091;-83
2022/06/19 11:43:33;;;;;;;6.70;1.80;;;18.40;99.90;;;;;;5005682;28;20472;-83
2022/06/19 11:46:26;;;;;;;7.57;0.93;;;18.30;99.90;;;;;;5036439;28;20064;-82
2022/06/19 11:49:35;;;;;;;6.63;1.10;;;18.10;99.90;;;;;;5051229;28;20041;-82
2022/06/19 11:52:27;;;;;;;3.58;0.98;;;18.10;99.90;;;;;;5049556;28;20099;-81
2022/06/19 11:55:29;;;;;;;4.57;1.40;;;18.10;99.90;;;;;;5032368;28;20048;-81
2022/06/19 11:58:46;;;;;;;5.95;1.00;;;18.10;99.90;;;;;;5049760;28;20136;-81
2022/06/19 12:01:37;;;;;;;5.00;1.10;;;18.20;99.90;;;;;;5048830;28;20084;-82
2022/06/19 12:04:39;;;;;;;4.18;0.82;;;18.20;99.90;;;;;;5018746;28;20059;-82
2022/06/19 12:07:29;;;;;;;4.70;1.10;;;18.40;99.90;;;;;;5049949;28;20057;-81
2022/06/19 12:10:15;;;;;;;7.22;1.30;;;18.70;99.90;;;;;;5031757;28;20155;-82
2022/06/19 12:13:04;;;;;;;5.32;1.10;;;19.30;99.40;;;;;;5048629;28;20571;-81
2022/06/19 12:16:09;;;;;;;5.90;1.48;;;19.60;98.10;;;;;;5050415;28;20057;-82
2022/06/19 12:19:11;;;;;;;6.90;1.00;;;20.00;98.20;;;;;;5031903;28;20077;-82
2022/06/19 12:22:04;;;;;;;5.03;0.73;;;20.50;97.70;;;;;;5047886;28;20567;-82
2022/06/19 12:24:57;;;;;;;5.60;1.08;;;20.60;97.00;;;;;;5048061;28;20057;-83
2022/06/19 12:27:53;;;;;;;4.30;1.00;;;20.60;96.60;;;;;;5053887;28;20099;-82
2022/06/19 12:30:56;;;;;;;5.00;1.33;;;20.80;96.20;;;;;;5036421;28;20186;-81
2022/06/19 12:33:53;;;;;;;4.18;0.98;;;20.50;94.90;;;;;;5045826;28;20114;-83
2022/06/19 12:36:40;;;;;;;5.70;1.45;;;20.40;95.70;;;;;;5053676;28;20041;-84
2022/06/19 12:39:30;;;;;;;6.85;1.25;;;20.20;96.00;;;;;;5053009;28;20134;-83
2022/06/19 12:42:19;;;;;;;6.28;0.93;;;20.00;96.40;;;;;;5035505;28;20053;-83
2022/06/19 12:45:13;;;;;;;5.30;1.20;;;19.80;96.40;;;;;;5053186;28;20147;-82
2022/06/19 12:48:05;;;;;;;6.22;1.35;;;19.90;96.50;;;;;;5052614;28;20133;-84
2022/06/19 12:51:12;;;;;;;8.00;1.85;;;20.00;96.30;;;;;;5053847;28;20404;-84
2022/06/19 12:54:16;;;;;;;4.53;1.35;;;20.10;95.90;;;;;;5052765;28;20138;-83
2022/06/19 12:57:23;;;;;;;5.53;1.50;;;20.30;95.80;;;;;;5053086;28;20104;-83
2022/06/19 13:00:32;;;;;;;5.15;1.58;;;20.40;95.30;;;;;;5053205;28;20045;-84
2022/06/19 13:03:27;;;;;;;5.70;1.23;;;20.50;95.30;;;;;;5052659;28;20055;-80
2022/06/19 13:06:19;;;;;;;;;;;21.10;95.60;;;;;;5054239;28;20132;-84
2022/06/19 13:09:45;;;;;;;2.90;0.90;;;21.20;93.80;;;;;;5052267;28;19974;-84
2022/06/19 13:12:50;;;;;;;7.40;1.58;;;21.70;93.70;;;;;;5053072;28;20041;-85
2022/06/19 13:16:01;;;;;;;7.13;1.20;;;22.20;92.90;;;;;;5034852;28;20501;-82
2022/06/19 13:19:30;;;;;;;7.18;1.58;;;23.20;91.10;;;;;;5052297;28;20084;-81
2022/06/19 13:22:26;;;;;;;5.18;1.40;;;23.00;85.80;;;;;;5022611;28;20249;-81
2022/06/19 13:25:15;;;;;;;5.80;0.93;;;23.60;83.70;;;;;;5052748;28;20486;-82
2022/06/19 13:28:46;;;;;;;7.95;1.40;;;23.80;86.50;;;;;;5033714;28;20045;-85
2022/06/19 13:31:44;;;;;;;7.95;1.50;;;24.00;84.20;;;;;;5034288;28;20545;-82
2022/06/19 13:34:55;;;;;;;8.27;1.38;;;23.90;78.40;;;;;;5052108;28;20084;-81
2022/06/19 13:38:15;;;;;;;5.15;1.63;;;23.70;77.60;;;;;;5052382;28;20196;-82
2022/06/19 13:41:10;;;;;;;9.02;1.60;;;24.30;81.90;;;;;;5051837;28;20049;-82
2022/06/19 13:44:15;;;;;;;;;;;24.30;76.50;;;;;;5053164;28;20040;-82
2022/06/19 13:47:35;;;;;;;4.60;1.33;;;24.20;73.40;;;;;;5051310;28;20376;-82
2022/06/19 13:50:26;;;;;;;7.10;1.38;;;24.80;77.10;;;;;;5051475;28;20041;-81
2022/06/19 13:53:40;;;;;;;6.97;1.40;;;24.90;72.50;;;;;;5051791;28;20051;-80
2022/06/19 13:56:40;;;;;;;8.43;1.40;;;25.00;71.60;;;;;;5020147;28;20069;-81
2022/06/19 13:59:39;;;;;;;11.05;1.98;;;24.30;70.60;;;;;;5034115;28;20064;-79
2022/06/19 14:02:59;;;;;;;6.80;1.85;;;24.90;70.20;;;;;;5051061;28;20135;-81
2022/06/19 14:05:48;;;;;;;7.15;1.58;;;25.20;71.70;;;;;;5051701;28;20827;-81
2022/06/19 14:08:46;;;;;;;7.85;1.33;;;25.20;68.50;;;;;;5050811;28;20144;-81
2022/06/19 14:14:43;;;;;;;6.40;1.40;;;25.70;71.70;;;;;;5051809;28;20095;-82
2022/06/19 14:17:36;;;;;;;6.05;2.15;;;26.20;68.60;;;;;;5051543;28;20045;-82
2022/06/19 14:20:50;;;;;;;5.43;1.20;;;25.70;70.90;;;;;;5033528;28;20464;-81
2022/06/19 14:23:57;;;;;;;6.90;1.65;;;25.90;70.50;;;;;;5051215;28;20152;-81
2022/06/19 14:27:03;;;;;;;8.77;1.83;;;25.60;69.60;;;;;;5051100;28;20132;-84
2022/06/19 14:29:56;;;;;;;8.77;1.90;;;24.70;71.40;;;;;;5036328;28;20048;-81
2022/06/19 14:32:45;;;;;;;6.30;1.58;;;24.20;74.90;;;;;;5051381;28;20049;-82
2022/06/19 14:35:34;;;;;;;9.52;1.98;;;24.10;75.80;;;;;;5050638;28;20045;-84
2022/06/19 14:38:33;;;;;;;9.13;2.10;;;23.70;77.10;;;;;;5050078;28;20057;-82
2022/06/19 14:41:35;;;;;;;10.80;2.13;;;23.60;81.70;;;;;;5020031;28;20094;-82
2022/06/19 14:44:21;;;;;;;9.73;2.08;;;23.50;81.80;;;;;;5035658;28;20052;-80
2022/06/19 14:47:24;;;;;;;9.38;1.65;;;23.10;87.10;;;;;;5051102;28;20154;-82
2022/06/19 14:50:22;;;;;;;4.95;1.17;;;23.00;88.40;;;;;;5050993;28;20150;-82
2022/06/19 14:53:46;;;;;;;7.68;1.92;;;22.90;89.60;;;;;;5033263;28;20396;-84
2022/06/19 14:56:44;;;;;;;7.38;2.17;;;22.80;86.30;;;;;;5018421;28;20041;-81
2022/06/19 15:00:03;;;;;;;10.95;2.17;;;22.40;90.90;;;;;;5032641;28;20045;-82
2022/06/19 15:02:54;;;;;;;10.48;2.10;;;23.20;90.30;;;;;;5043463;28;20053;-82
2022/06/19 15:05:50;;;;;;;7.25;1.58;;;23.30;89.80;;;;;;5033650;28;20044;-83
2022/06/19 15:08:40;;;;;;;6.05;1.60;;;22.80;90.50;;;;;;5051341;28;20091;-82
2022/06/19 15:11:33;;;;;;;10.05;1.85;;;22.50;90.90;;;;;;5034007;28;20090;-82
2022/06/19 15:14:23;;;;;;;11.07;2.20;;;22.70;90.50;;;;;;5032753;28;20144;-82
2022/06/19 15:17:23;;;;;;;7.40;1.65;;;22.50;90.50;;;;;;5032409;28;20190;-81
2022/06/19 15:20:27;;;;;;;8.48;1.73;;;22.30;90.30;;;;;;5049850;28;20045;-83
2022/06/19 15:23:24;;;;;;;8.43;1.77;;;21.80;90.90;;;;;;5050644;28;20045;-81